MMMXMMPA

Guest
Details From MMMX - Licenciado Benito Juarez Intl
To MMPA - TAJIN
Flight Number -
Tags generated
Created
Modified
Stats Distance 115 nm / 213 km
Max Altitude 7,900 ft / 2,408 m
Waypoints 3
Social Downloads 0
Likes 0
Share VATSIM

Download

Looking for another format? Having issues loading an existing format? Contact us
Advertisement - Login to hide

Notes

Basic altitude profile: - Ascent Rate: 2500ft/min - Ascent Speed: 250kts - Cruise Altitude: 18000ft - Cruise Speed: 420kts - Descent Rate: 1500ft/min - Descent Speed: 250kts Options: - Use NATs: yes - Use PACOTS: yes - Use low airways: no - Use high airways: yes

Route

MMMX OTU MMPA

ID Type Via Altitude Latitude Longitude Leg Dist Tot Dist Heading (true) Name
O MMMX APT - 0 ft / 0 m 19.43631˚ -99.07210˚ - 0 nm - Licenciado Benito Juarez Intl
OTU VOR - 7,900 ft / 2,408 m 19.68314˚ -98.77644˚ 22 nm 22 nm 48° / 49° OTUMBA VOR-DME
O MMPA APT - 0 ft / 0 m 20.60267˚ -97.46084˚ 92 nm 114 nm 53° / 54° TAJIN

Altitude Profile

Advertisement - Login to hide

MMMX

Details ICAO MMMX (MEX)
Name Licenciado Benito Juarez Intl
Region Mexico
Timezone America/Mexico_City (UTC-6.0)
Stats Elevation 7,316 ft / 2,230 m (AMSL)
Location 19.436308° -99.072104°
Runways 2
Magnetic Variation 4.647° E

METAR

MMMX 181944Z 08006KT 5SM SCT200 22/03 A3031 NOSIG RMK 8/002 HZY

Decode

TAF

Not found

Departure Runways

ID Width Length Bearing (true) Bearing (mag) Surface Threshold Offset Overrun Length
05L 148 ft / 45 m 12,951 ft / 3,948 m 59.25° 54.60° Asphalt 1,033 ft / 315 m 0 ft / 0 m
05R 148 ft / 45 m 12,800 ft / 3,902 m 59.26° 54.61° Asphalt 1,493 ft / 455 m 0 ft / 0 m
23L 148 ft / 45 m 12,800 ft / 3,902 m 239.28° 234.63° Asphalt 0 ft / 0 m 200 ft / 61 m
23R 148 ft / 45 m 12,951 ft / 3,948 m 239.27° 234.62° Asphalt 1,640 ft / 500 m 0 ft / 0 m

MMPA

Details ICAO MMPA (PAZ)
Name TAJIN
Region Mexico
Timezone America/Mexico_City (UTC-6.0)
Stats Elevation 497 ft / 151 m (AMSL)
Location 20.602670° -97.460837°
Runways 1
Magnetic Variation 3.899° E

METAR

MMPA 181947Z 00000KT 5SM BKN020 27/20 A3009 RMK 8/400 HZY

Decode

TAF

TAF MMPA 181730Z 1818/1918 03010KT 5SM HZ BKN020 FM182100 10010KT 5SM HZ SCT020 FM190400 00000KT 3SM BR BKN010 FM191000 00000KT 1SM BR OVC005 FM191500 13010KT 3SM HZ SCT015

Decode

Destination Runways

ID Width Length Bearing (true) Bearing (mag) Surface Threshold Offset Overrun Length
08 148 ft / 45 m 5,896 ft / 1,797 m 89.06° 85.16° Asphalt 0 ft / 0 m 200 ft / 61 m
26 148 ft / 45 m 5,896 ft / 1,797 m 269.07° 265.17° Asphalt 0 ft / 0 m 200 ft / 61 m

Popular Alternatives